SALOWI 161920Z VRB02KT 9999 FEW050 M03/M05 Q1016 R08/19//95 NOSIG
FTLOWI 161715Z 1618/1718 VRB02KT 9999 FEW050 BKN100 TX01/1713Z TNM04/1704Z